Time;durP1;ratioP1;P1;durP2;ratioP2;P2;SDS_P1;SDS_P2;PMS_P1;PMS_P2;Temp;Humidity;BMP_temperature;BMP_pressure;BME280_temperature;BME280_humidity;BME280_pressure;Samples;Min_cycle;Max_cycle;Signal;HPM_P1;HPM_P2
2022/05/15 00:02:46;;;;;;;5.10;1.97;;;;;;;12.26;68.46;101089.44;6244587;23;20046;-73
2022/05/15 00:05:57;;;;;;;10.27;2.00;;;;;;;12.16;69.01;101084.75;6244966;23;20457;-73
2022/05/15 00:09:01;;;;;;;3.80;1.60;;;;;;;12.11;69.44;101084.97;6244812;22;20390;-73
2022/05/15 00:12:06;;;;;;;5.63;2.65;;;;;;;12.13;69.13;101083.13;6244820;23;20039;-72
2022/05/15 00:15:10;;;;;;;9.95;3.17;;;;;;;12.02;68.90;101078.41;6244999;23;20050;-73
2022/05/15 00:18:20;;;;;;;4.53;2.20;;;;;;;12.03;68.99;101071.41;6244731;23;20099;-73
2022/05/15 00:21:24;;;;;;;8.05;2.15;;;;;;;11.99;69.29;101075.94;6244926;23;20026;-73
2022/05/15 00:24:28;;;;;;;5.70;2.30;;;;;;;11.98;69.31;101078.63;6244884;23;20023;-73
2022/05/15 00:27:32;;;;;;;4.35;2.53;;;;;;;11.88;69.28;101077.41;6244851;23;20023;-73
2022/05/15 00:30:37;;;;;;;5.68;2.30;;;;;;;11.79;69.65;101069.03;6244928;23;20023;-73
2022/05/15 00:33:43;;;;;;;6.88;2.40;;;;;;;11.94;69.19;101074.47;6244209;23;20027;-73
2022/05/15 00:36:47;;;;;;;5.25;2.83;;;;;;;11.91;68.61;101072.00;6244588;23;20027;-73
2022/05/15 00:39:52;;;;;;;5.78;2.42;;;;;;;11.75;69.48;101075.34;6244875;23;20061;-73
2022/05/15 00:42:55;;;;;;;5.22;2.15;;;;;;;11.82;68.94;101068.88;6226003;23;20360;-73
2022/05/15 00:45:59;;;;;;;5.80;2.90;;;;;;;12.00;68.84;101077.66;6244504;23;20233;-73
2022/05/15 00:49:07;;;;;;;5.97;2.20;;;;;;;11.73;69.40;101071.94;6244601;23;20066;-73
2022/05/15 00:52:19;;;;;;;7.20;2.60;;;;;;;11.56;70.13;101077.16;6244499;23;20386;-73
2022/05/15 00:55:30;;;;;;;6.60;3.10;;;;;;;11.57;70.03;101077.06;6244530;23;20073;-73
2022/05/15 00:58:40;;;;;;;6.50;2.67;;;;;;;11.71;69.84;101076.41;6244705;23;20234;-73
2022/05/15 01:01:43;;;;;;;10.65;2.95;;;;;;;11.67;69.62;101071.38;6244245;23;20058;-72
2022/05/15 01:04:47;;;;;;;6.80;3.13;;;;;;;11.55;69.87;101067.56;6226230;23;20042;-72
2022/05/15 01:07:52;;;;;;;7.70;2.42;;;;;;;11.45;69.67;101072.38;6244599;22;20023;-73
2022/05/15 01:11:05;;;;;;;5.88;2.67;;;;;;;11.39;70.62;101076.16;6226864;23;20027;-73
2022/05/15 01:14:11;;;;;;;7.53;3.08;;;;;;;11.40;70.21;101077.88;6227931;23;20103;-73
2022/05/15 01:17:16;;;;;;;4.82;2.72;;;;;;;11.39;70.44;101083.16;6227773;23;20023;-73
2022/05/15 01:20:26;;;;;;;10.52;2.83;;;;;;;11.33;70.86;101084.31;6227866;23;20066;-73
2022/05/15 01:23:30;;;;;;;7.22;2.85;;;;;;;11.22;70.91;101078.72;6228069;23;20524;-73
2022/05/15 01:26:38;;;;;;;5.35;2.88;;;;;;;11.30;70.42;101081.84;6228312;23;20023;-73
2022/05/15 01:29:46;;;;;;;5.80;2.97;;;;;;;11.32;70.62;101072.13;6228200;23;20103;-73
2022/05/15 01:32:53;;;;;;;7.40;3.20;;;;;;;11.36;69.89;101072.84;6227350;23;20026;-72
2022/05/15 01:35:58;;;;;;;4.00;2.40;;;;;;;11.26;70.21;101072.41;6227632;23;20098;-73
2022/05/15 01:39:05;;;;;;;6.85;3.15;;;;;;;11.17;70.59;101070.25;6227748;23;20027;-73
2022/05/15 01:42:09;;;;;;;5.57;2.30;;;;;;;11.17;70.55;101071.09;6227710;23;20474;-73
2022/05/15 01:45:15;;;;;;;8.30;2.83;;;;;;;11.21;70.68;101069.16;6246123;23;20028;-73
2022/05/15 01:48:18;;;;;;;4.38;2.13;;;;;;;11.13;70.58;101059.03;6227733;23;20026;-73
2022/05/15 01:51:24;;;;;;;4.53;2.50;;;;;;;11.08;70.87;101074.13;6227798;23;20359;-73
2022/05/15 01:54:27;;;;;;;8.73;2.85;;;;;;;11.01;71.23;101072.72;6227600;23;20471;-72
2022/05/15 01:57:31;;;;;;;7.03;2.70;;;;;;;10.94;71.51;101069.53;6227744;23;20023;-73
2022/05/15 02:00:37;;;;;;;5.63;2.75;;;;;;;10.85;71.98;101064.69;6227359;23;20038;-73
2022/05/15 02:03:42;;;;;;;5.30;2.50;;;;;;;10.87;71.94;101068.06;6246063;23;20151;-73
2022/05/15 02:06:47;;;;;;;5.93;2.60;;;;;;;10.83;71.77;101063.91;6227954;23;20505;-73
2022/05/15 02:09:51;;;;;;;7.43;2.88;;;;;;;10.79;71.77;101059.72;6227477;23;20535;-73
2022/05/15 02:12:55;;;;;;;5.25;3.20;;;;;;;10.78;71.66;101062.41;6227490;23;20066;-72
2022/05/15 02:16:01;;;;;;;6.40;2.70;;;;;;;10.84;71.63;101065.59;6227444;23;20023;-72
2022/05/15 02:19:06;;;;;;;7.78;2.85;;;;;;;10.81;71.33;101068.34;6227252;23;20035;-73
2022/05/15 02:22:12;;;;;;;5.78;2.38;;;;;;;10.79;71.25;101059.72;6245813;23;20026;-73
2022/05/15 02:25:17;;;;;;;7.85;2.50;;;;;;;10.74;71.75;101066.94;6244887;23;20023;-73
2022/05/15 02:28:21;;;;;;;7.65;2.95;;;;;;;10.68;71.39;101067.19;6227258;23;20027;-73
2022/05/15 02:31:25;;;;;;;5.35;3.03;;;;;;;10.69;71.39;101061.06;6227136;23;20142;-73
2022/05/15 02:34:29;;;;;;;5.20;2.45;;;;;;;10.74;71.58;101064.31;6227279;23;20027;-72
2022/05/15 02:37:33;;;;;;;4.95;2.67;;;;;;;10.65;71.32;101067.31;6227161;23;20031;-72
2022/05/15 02:40:37;;;;;;;8.77;3.10;;;;;;;10.58;71.60;101061.53;6227408;23;20026;-73
2022/05/15 02:43:41;;;;;;;5.47;2.28;;;;;;;10.52;71.89;101066.16;6226367;23;20022;-72
2022/05/15 02:46:45;;;;;;;4.18;2.20;;;;;;;10.56;71.75;101063.38;6226984;23;20047;-72
2022/05/15 02:53:11;;;;;;;9.35;2.40;;;;;;;10.51;71.71;101074.94;6226946;23;20470;-73
2022/05/15 02:56:35;;;;;;;5.80;3.00;;;;;;;10.47;72.02;101080.28;6227034;23;20118;-72
2022/05/15 02:59:40;;;;;;;6.82;2.75;;;;;;;10.30;72.35;101069.69;6244546;23;20214;-73
2022/05/15 03:02:43;;;;;;;6.38;2.60;;;;;;;10.23;72.83;101076.06;6226623;23;20023;-72
2022/05/15 03:05:47;;;;;;;5.07;2.50;;;;;;;10.20;72.90;101070.97;6227074;23;20344;-73
2022/05/15 03:08:52;;;;;;;4.95;2.63;;;;;;;10.20;72.52;101068.34;6226881;23;20023;-73
2022/05/15 03:11:56;;;;;;;7.72;2.47;;;;;;;10.14;72.88;101071.22;6245131;23;20360;-73
2022/05/15 03:15:00;;;;;;;5.10;2.47;;;;;;;10.17;72.37;101077.16;6226953;23;20416;-72
2022/05/15 03:18:04;;;;;;;6.50;2.60;;;;;;;10.30;72.27;101077.53;6226933;23;20022;-72
2022/05/15 03:21:08;;;;;;;4.30;2.40;;;;;;;10.15;72.40;101078.16;6226912;23;20074;-73
2022/05/15 03:24:13;;;;;;;8.38;2.42;;;;;;;10.09;72.45;101076.66;6227063;23;20023;-73
2022/05/15 03:27:17;;;;;;;6.80;2.80;;;;;;;10.13;72.17;101074.75;6244999;23;20023;-72
2022/05/15 03:30:21;;;;;;;6.70;2.50;;;;;;;10.22;72.05;101070.00;6244874;23;20050;-73
2022/05/15 03:33:24;;;;;;;7.32;2.55;;;;;;;10.08;72.23;101079.31;6244783;23;20023;-73
2022/05/15 03:36:28;;;;;;;6.47;2.70;;;;;;;10.01;72.64;101079.56;6226350;23;20039;-72
2022/05/15 03:39:33;;;;;;;4.70;2.30;;;;;;;10.08;72.47;101081.94;6245146;23;20087;-73
2022/05/15 03:42:38;;;;;;;5.70;2.83;;;;;;;9.98;72.46;101079.69;6244967;23;20428;-73
2022/05/15 03:45:41;;;;;;;7.63;2.80;;;;;;;10.04;72.75;101080.38;6226418;23;20073;-72
2022/05/15 03:48:45;;;;;;;6.57;2.40;;;;;;;10.06;72.55;101092.47;6226638;23;20109;-72
2022/05/15 03:51:49;;;;;;;5.03;2.40;;;;;;;10.11;72.58;101093.09;6245081;23;20466;-73
2022/05/15 03:54:53;;;;;;;6.65;3.25;;;;;;;9.97;72.82;101085.84;6244811;23;20023;-72
2022/05/15 03:57:57;;;;;;;4.93;2.70;;;;;;;9.97;72.54;101085.84;6226425;23;20026;-72
2022/05/15 04:01:03;;;;;;;4.05;2.38;;;;;;;9.96;72.87;101089.38;6244434;23;20150;-73
2022/05/15 04:04:07;;;;;;;5.10;2.60;;;;;;;10.03;72.46;101084.75;6226336;23;20050;-73
2022/05/15 04:07:12;;;;;;;8.85;3.33;;;;;;;10.11;71.88;101081.81;6244854;22;20043;-73
2022/05/15 04:10:19;;;;;;;8.52;2.83;;;;;;;10.09;72.61;101086.25;6226056;23;20026;-72
2022/05/15 04:13:23;;;;;;;5.53;2.85;;;;;;;10.04;72.56;101075.13;6244887;23;20594;-73
2022/05/15 04:16:28;;;;;;;7.00;3.08;;;;;;;10.01;72.46;101076.94;6244910;23;20077;-73
2022/05/15 04:19:38;;;;;;;5.72;2.55;;;;;;;10.12;72.15;101071.31;6226361;23;20031;-72
2022/05/15 04:22:42;;;;;;;5.05;3.10;;;;;;;10.05;72.65;101076.81;6244212;23;20019;-72
2022/05/15 04:25:46;;;;;;;5.65;2.63;;;;;;;10.04;72.44;101073.38;6225623;23;20073;-73
2022/05/15 04:28:50;;;;;;;4.32;2.33;;;;;;;10.02;72.44;101081.28;6225327;23;20263;-73
2022/05/15 04:31:57;;;;;;;4.82;2.20;;;;;;;9.93;72.85;101076.44;6225696;23;20023;-73
2022/05/15 04:35:01;;;;;;;5.30;2.60;;;;;;;10.10;72.41;101080.13;6244300;23;20027;-73
2022/05/15 04:38:08;;;;;;;4.80;2.38;;;;;;;10.07;72.92;101086.31;6244575;23;20058;-73
2022/05/15 04:41:11;;;;;;;7.22;2.80;;;;;;;10.01;72.93;101082.19;6243586;23;20077;-73
2022/05/15 04:44:15;;;;;;;4.47;2.35;;;;;;;10.01;73.12;101087.41;6242965;23;20085;-72
2022/05/15 04:47:19;;;;;;;4.97;2.72;;;;;;;10.09;72.74;101097.56;6245726;23;20023;-72
2022/05/15 04:50:25;;;;;;;6.85;2.70;;;;;;;10.07;73.00;101101.13;6246404;23;20073;-73
2022/05/15 04:53:30;;;;;;;5.95;3.17;;;;;;;10.09;73.16;101088.88;6125982;22;20070;-73
2022/05/15 04:56:35;;;;;;;4.70;2.47;;;;;;;10.15;72.92;101099.06;6156015;23;20474;-73
2022/05/15 04:59:39;;;;;;;4.25;2.35;;;;;;;10.35;72.40;101096.50;6156012;23;20106;-73
2022/05/15 05:02:45;;;;;;;6.43;2.85;;;;;;;10.09;73.15;101099.31;6156477;23;20024;-73
2022/05/15 05:05:49;;;;;;;5.80;2.33;;;;;;;9.97;73.41;101098.06;6156429;23;20048;-72
2022/05/15 05:08:53;;;;;;;5.38;3.08;;;;;;;10.24;72.68;101098.66;6155106;23;20110;-73
2022/05/15 05:11:57;;;;;;;9.77;2.80;;;;;;;10.29;72.60;101101.97;6156288;23;20072;-73
2022/05/15 05:15:01;;;;;;;9.10;3.20;;;;;;;10.13;73.04;101101.72;6156398;23;20100;-73
2022/05/15 05:18:05;;;;;;;5.25;2.67;;;;;;;10.25;72.98;101101.22;6156180;23;20345;-73
2022/05/15 05:21:09;;;;;;;9.00;2.67;;;;;;;9.97;74.11;101105.88;6152684;23;20072;-73
2022/05/15 05:24:13;;;;;;;7.57;2.95;;;;;;;10.21;73.54;101109.25;6151417;23;20076;-72
2022/05/15 05:27:16;;;;;;;7.95;2.95;;;;;;;10.48;72.33;101108.13;6151681;23;20032;-73
2022/05/15 05:30:23;;;;;;;4.72;2.45;;;;;;;10.32;73.34;101112.31;6151664;23;20137;-73
2022/05/15 05:33:27;;;;;;;6.35;2.88;;;;;;;10.44;72.88;101101.34;6151424;23;20029;-72
2022/05/15 05:36:31;;;;;;;7.40;2.75;;;;;;;10.71;72.24;101098.44;6151761;23;20068;-72
2022/05/15 05:39:35;;;;;;;6.28;3.03;;;;;;;10.60;73.33;101112.00;6151520;23;20056;-72
2022/05/15 05:42:39;;;;;;;4.85;2.88;;;;;;;10.44;74.21;101109.19;6151472;23;20032;-72
2022/05/15 05:45:42;;;;;;;5.63;2.65;;;;;;;10.55;74.14;101108.72;6150852;23;20058;-72
2022/05/15 05:48:46;;;;;;;6.57;2.85;;;;;;;10.70;73.89;101117.69;6151842;23;20064;-72
2022/05/15 05:51:51;;;;;;;6.40;2.80;;;;;;;10.75;74.35;101120.94;6150864;23;20076;-72
2022/05/15 05:54:54;;;;;;;4.70;2.50;;;;;;;10.69;74.90;101109.00;6149509;23;20053;-72
2022/05/15 05:58:00;;;;;;;8.48;2.75;;;;;;;10.98;73.77;101113.88;6146271;23;20024;-72
2022/05/15 06:01:03;;;;;;;5.72;3.00;;;;;;;11.09;74.63;101111.59;6145028;23;20397;-72
2022/05/15 06:07:29;;;;;;;6.43;2.80;;;;;;;11.25;74.85;101111.75;6146699;23;20025;-72
2022/05/15 06:10:33;;;;;;;6.05;2.72;;;;;;;11.39;74.64;101104.97;6145106;23;20180;-72
2022/05/15 06:13:38;;;;;;;6.43;3.28;;;;;;;11.48;75.01;101105.44;6146080;23;20024;-72
2022/05/15 06:16:41;;;;;;;7.35;3.90;;;;;;;11.61;73.88;101109.19;6146100;23;20092;-72
2022/05/15 06:19:46;;;;;;;5.43;3.28;;;;;;;11.82;73.64;101112.56;6128317;23;20024;-72
2022/05/15 06:22:50;;;;;;;8.15;3.45;;;;;;;12.13;72.33;101109.34;6145950;23;20025;-72
2022/05/15 06:25:53;;;;;;;6.47;2.65;;;;;;;12.39;72.15;101115.06;6146427;23;20365;-72
2022/05/15 06:28:57;;;;;;;7.35;3.35;;;;;;;12.72;70.96;101099.34;6146444;23;20492;-72
2022/05/15 06:32:00;;;;;;;6.93;3.08;;;;;;;12.77;70.64;101095.56;6145826;23;20064;-72
2022/05/15 06:35:09;;;;;;;6.70;2.78;;;;;;;12.92;70.58;101087.81;6144232;23;20045;-72
2022/05/15 06:38:13;;;;;;;6.97;3.15;;;;;;;13.12;70.08;101092.00;6144908;23;20540;-73
2022/05/15 06:41:18;;;;;;;8.40;3.00;;;;;;;13.21;70.82;101097.63;6145186;23;20074;-72
2022/05/15 06:44:22;;;;;;;5.70;3.00;;;;;;;13.41;70.64;101086.03;6145700;23;20476;-72
2022/05/15 06:47:26;;;;;;;11.95;4.80;;;;;;;13.62;68.59;101083.16;6148270;23;20512;-72
2022/05/15 06:50:29;;;;;;;14.23;3.95;;;;;;;13.78;67.07;101075.25;6150331;23;20446;-72
2022/05/15 06:53:34;;;;;;;11.82;3.78;;;;;;;13.84;67.05;101080.16;6149206;23;20028;-72
2022/05/15 07:00:12;;;;;;;14.52;3.85;;;;;;;14.05;65.89;101081.56;6150126;23;20076;-72
2022/05/15 07:03:16;;;;;;;11.45;3.78;;;;;;;14.22;65.43;101077.09;6148976;23;20023;-72
2022/05/15 07:06:20;;;;;;;8.18;3.40;;;;;;;14.32;65.15;101075.59;6149487;23;20076;-72
2022/05/15 07:09:26;;;;;;;11.77;4.10;;;;;;;14.44;65.15;101080.16;6149757;23;20076;-72
2022/05/15 07:12:30;;;;;;;9.85;3.70;;;;;;;14.53;64.45;101077.00;6150255;23;20024;-72
2022/05/15 07:15:33;;;;;;;9.57;3.28;;;;;;;14.60;63.82;101073.06;6150632;23;20694;-72
2022/05/15 07:18:38;;;;;;;16.13;4.00;;;;;;;14.55;63.95;101067.25;6148237;23;20024;-72
2022/05/15 07:21:43;;;;;;;10.38;3.47;;;;;;;14.68;64.84;101064.72;6151187;23;20049;-80
2022/05/15 07:24:46;;;;;;;10.63;4.13;;;;;;;14.92;64.71;101067.63;6152366;23;20150;-73
2022/05/15 07:27:50;;;;;;;10.18;3.65;;;;;;;14.92;63.27;101061.50;6150082;23;20478;-73
2022/05/15 07:30:54;;;;;;;11.07;3.25;;;;;;;14.98;63.24;101064.59;6154506;23;20028;-73
2022/05/15 07:33:57;;;;;;;10.98;3.33;;;;;;;15.03;64.06;101059.06;6154409;23;20174;-73
2022/05/15 07:37:02;;;;;;;10.27;3.47;;;;;;;15.12;63.80;101061.09;6153457;23;20036;-73
2022/05/15 07:40:07;;;;;;;9.82;3.97;;;;;;;15.20;63.20;101065.91;6153965;23;20028;-73
2022/05/15 07:43:19;;;;;;;9.95;3.33;;;;;;;15.25;63.69;101066.44;6154532;23;20075;-72
2022/05/15 07:46:33;;;;;;;8.65;3.28;;;;;;;15.19;63.15;101059.78;6136814;23;20056;-72
2022/05/15 07:49:59;;;;;;;9.68;3.75;;;;;;;15.29;63.27;101060.91;6148086;23;20377;-72
2022/05/15 07:53:04;;;;;;;14.35;3.42;;;;;;;15.36;62.68;101053.44;6150339;23;20032;-72
2022/05/15 07:56:09;;;;;;;9.20;3.55;;;;;;;15.52;62.72;101061.22;6150006;23;20083;-72
2022/05/15 07:59:13;;;;;;;11.23;3.50;;;;;;;15.63;62.83;101053.44;6147750;23;20059;-72
2022/05/15 08:02:36;;;;;;;10.48;3.28;;;;;;;15.74;62.51;101050.16;6149621;23;20088;-72
2022/05/15 08:09:05;;;;;;;6.93;3.25;;;;;;;16.22;61.28;101045.19;6154120;23;20101;-72
2022/05/15 08:12:09;;;;;;;7.85;2.85;;;;;;;16.21;60.56;101043.53;6153050;23;20068;-72
2022/05/15 08:15:14;;;;;;;11.30;3.13;;;;;;;16.28;60.88;101044.78;6154694;23;20029;-72
2022/05/15 08:25:04;;;;;;;11.50;2.78;;;;;;;16.41;60.12;101037.72;6154471;23;20072;-72
2022/05/15 08:28:07;;;;;;;10.32;3.75;;;;;;;16.58;59.51;101035.72;6152899;23;20556;-72
2022/05/15 08:31:12;;;;;;;14.23;3.33;;;;;;;16.72;59.85;101027.69;6154582;23;20029;-72
2022/05/15 08:34:16;;;;;;;12.18;3.15;;;;;;;16.85;60.14;101025.91;6154243;23;20503;-72
2022/05/15 08:37:19;;;;;;;11.05;2.72;;;;;;;16.99;60.63;101018.78;6154603;23;20068;-72
2022/05/15 08:40:32;;;;;;;10.30;3.20;;;;;;;17.14;59.63;101018.53;6154028;23;20028;-72
2022/05/15 08:43:51;;;;;;;10.35;3.85;;;;;;;17.26;58.87;101008.88;6154843;23;20080;-72
2022/05/15 08:47:05;;;;;;;8.90;3.33;;;;;;;17.31;58.29;101005.91;6154321;23;20080;-72
2022/05/15 08:50:14;;;;;;;10.07;2.75;;;;;;;17.42;58.82;101001.53;6153772;23;20023;-72
2022/05/15 08:53:25;;;;;;;7.65;2.35;;;;;;;17.51;57.91;101001.78;6154555;23;20041;-72
2022/05/15 08:56:34;;;;;;;13.82;3.25;;;;;;;17.53;57.70;100999.88;6154217;23;20059;-72
2022/05/15 08:59:48;;;;;;;11.77;3.03;;;;;;;17.58;57.26;100998.59;6153897;23;20092;-72
2022/05/15 09:02:56;;;;;;;9.30;3.17;;;;;;;17.70;57.83;101003.91;6154028;23;20076;-72
2022/05/15 09:06:15;;;;;;;11.60;3.25;;;;;;;17.80;57.67;100999.66;6153970;23;20071;-73
2022/05/15 09:09:47;;;;;;;10.23;2.60;;;;;;;17.75;56.91;100999.13;6153876;23;20365;-72
2022/05/15 09:13:02;;;;;;;10.77;2.75;;;;;;;17.77;56.53;100999.88;6151832;23;20028;-72
2022/05/15 09:16:22;;;;;;;12.00;3.08;;;;;;;17.80;56.77;100999.66;6154410;23;20086;-72
2022/05/15 09:19:26;;;;;;;9.55;2.60;;;;;;;17.96;57.51;101000.16;6154139;23;20025;-72
2022/05/15 09:22:35;;;;;;;8.50;2.60;;;;;;;18.22;56.97;100990.25;6154566;23;20504;-72
2022/05/15 09:25:39;;;;;;;6.43;2.45;;;;;;;18.11;56.65;101003.47;6154149;23;20025;-72
2022/05/15 09:28:47;;;;;;;12.23;2.35;;;;;;;18.11;56.76;100987.59;6151646;23;20094;-72
2022/05/15 09:31:51;;;;;;;21.30;2.95;;;;;;;18.23;56.49;100986.66;6154049;23;20027;-72
2022/05/15 09:34:57;;;;;;;13.20;2.85;;;;;;;18.40;56.41;100981.84;6156072;23;20136;-72
2022/05/15 09:45:13;;;;;;;13.15;3.92;;;;;;;19.21;54.72;100981.56;6092409;23;20061;-72
2022/05/15 09:48:22;;;;;;;8.45;2.47;;;;;;;19.28;53.48;100977.44;6091332;23;20077;-72
2022/05/15 09:51:36;;;;;;;11.63;4.55;;;;;;;19.20;53.27;100984.31;6151523;23;20060;-72
2022/05/15 09:54:43;;;;;;;10.48;3.60;;;;;;;19.44;53.35;100973.53;6154994;23;20345;-72
2022/05/15 09:57:57;;;;;;;8.13;2.75;;;;;;;19.81;51.59;100967.81;6155187;23;20029;-72
2022/05/15 10:01:24;;;;;;;7.85;2.05;;;;;;;19.96;52.16;100959.41;6154042;23;20068;-72
2022/05/15 10:04:37;;;;;;;11.98;2.72;;;;;;;19.90;50.31;100949.31;6155712;23;20024;-72
2022/05/15 10:07:44;;;;;;;;;;;;;;;19.97;51.48;100944.31;6156448;23;20409;-72
2022/05/15 10:11:02;;;;;;;10.80;2.72;;;;;;;19.95;50.58;100940.97;6155621;23;19919;-72
2022/05/15 10:14:14;;;;;;;9.75;2.70;;;;;;;19.98;51.86;100935.41;6154592;23;20029;-72
2022/05/15 10:17:19;;;;;;;8.95;2.67;;;;;;;20.02;51.15;100936.81;6155083;23;20024;-72
2022/05/15 10:20:34;;;;;;;9.77;2.80;;;;;;;19.97;51.52;100928.41;6156130;23;20358;-72
2022/05/15 10:23:55;;;;;;;6.55;1.90;;;;;;;19.92;50.93;100933.28;6154603;23;20020;-72
2022/05/15 10:27:10;;;;;;;6.05;2.05;;;;;;;20.27;50.10;100932.06;6155177;23;20117;-72
2022/05/15 10:30:20;;;;;;;6.60;2.42;;;;;;;20.29;50.18;100916.81;6154935;23;20029;-72
2022/05/15 10:33:24;;;;;;;6.88;2.17;;;;;;;20.48;49.98;100916.88;6155256;23;20032;-72
2022/05/15 10:36:52;;;;;;;8.48;2.25;;;;;;;20.70;50.57;100915.03;6156096;23;20504;-72
2022/05/15 10:40:41;;;;;;;6.88;1.90;;;;;;;21.10;49.07;100918.47;6155790;23;20024;-72
2022/05/15 10:44:05;;;;;;;7.47;1.98;;;;;;;21.11;47.33;100909.50;6156107;23;20083;-72
2022/05/15 10:47:18;;;;;;;6.88;1.80;;;;;;;21.21;46.34;100908.66;6155715;23;20456;-72
2022/05/15 10:51:06;;;;;;;4.90;1.90;;;;;;;21.04;46.92;100897.75;6156126;23;20025;-72
2022/05/15 10:58:26;;;;;;;6.88;2.25;;;;;;;20.99;47.57;100881.34;6154950;23;20028;-72
2022/05/15 11:01:39;;;;;;;7.40;2.38;;;;;;;21.43;46.44;100876.50;6154360;23;20024;-72
2022/05/15 11:04:53;;;;;;;7.22;1.80;;;;;;;21.63;45.22;100871.13;6154815;23;20024;-72
2022/05/15 11:08:19;;;;;;;7.47;1.90;;;;;;;21.74;46.41;100858.50;6154765;23;20040;-72
2022/05/15 11:12:06;;;;;;;7.55;2.50;;;;;;;21.71;46.03;100869.44;6155021;23;20357;-72
2022/05/15 11:15:28;;;;;;;8.63;1.88;;;;;;;21.82;45.85;100860.44;6155793;23;20052;-72
2022/05/15 11:18:42;;;;;;;10.90;2.10;;;;;;;21.97;45.28;100863.47;6154421;23;20028;-72
2022/05/15 11:21:55;;;;;;;12.60;3.65;;;;;;;21.98;45.19;100855.31;6145252;23;20027;-72
2022/05/15 11:25:17;;;;;;;7.82;2.13;;;;;;;22.21;42.58;100847.03;6147709;23;20043;-72
2022/05/15 11:28:42;;;;;;;6.15;1.63;;;;;;;22.30;43.47;100843.44;6149378;23;20029;-72
2022/05/15 11:31:54;;;;;;;10.60;1.90;;;;;;;22.60;42.66;100833.47;6146692;23;20043;-72
2022/05/15 11:35:01;;;;;;;8.63;1.63;;;;;;;22.54;41.59;100829.56;6148957;23;20037;-72
2022/05/15 11:38:25;;;;;;;5.47;2.05;;;;;;;22.64;40.53;100835.66;6148202;23;20052;-72
2022/05/15 11:41:34;;;;;;;6.75;1.85;;;;;;;22.69;40.76;100821.91;6149931;23;20029;-72
2022/05/15 11:44:44;;;;;;;6.28;1.77;;;;;;;22.63;40.40;100827.84;6148902;23;20087;-73
2022/05/15 11:47:58;;;;;;;7.47;1.58;;;;;;;22.50;40.97;100823.72;6148787;23;20056;-73
2022/05/15 11:51:06;;;;;;;9.00;2.53;;;;;;;22.41;41.98;100824.59;6148326;23;20068;-73
2022/05/15 11:54:35;;;;;;;4.00;1.60;;;;;;;22.66;41.31;100819.53;6147722;23;20539;-72
2022/05/15 11:57:44;;;;;;;6.10;1.75;;;;;;;23.05;40.77;100816.59;6149438;23;20056;-72
2022/05/15 12:01:38;;;;;;;7.97;1.70;;;;;;;23.16;39.39;100816.31;6150067;23;20092;-72
2022/05/15 12:04:48;;;;;;;4.95;1.85;;;;;;;23.27;38.87;100804.59;6148115;23;20464;-73
2022/05/15 12:07:56;;;;;;;7.70;1.98;;;;;;;23.20;39.51;100809.72;6148934;23;20081;-73
2022/05/15 12:11:33;;;;;;;5.88;1.75;;;;;;;23.47;40.15;100805.22;6148884;23;20024;-73
2022/05/15 12:14:37;;;;;;;6.20;2.00;;;;;;;23.62;37.15;100801.81;6149118;23;20500;-73
2022/05/15 12:17:55;;;;;;;7.32;1.85;;;;;;;23.81;36.96;100798.09;6148445;23;20036;-73
2022/05/15 12:20:59;;;;;;;6.50;1.55;;;;;;;23.93;37.06;100792.47;6149142;23;20079;-72
2022/05/15 12:27:28;;;;;;;5.72;1.70;;;;;;;24.20;36.20;100781.56;6149005;23;20024;-72
2022/05/15 12:30:34;;;;;;;3.55;1.40;;;;;;;24.20;35.83;100781.56;6149563;23;20028;-72
2022/05/15 12:33:41;;;;;;;6.47;1.70;;;;;;;24.55;34.64;100779.66;6146603;23;20032;-72
2022/05/15 12:36:52;;;;;;;6.68;1.75;;;;;;;24.59;34.34;100772.97;6148153;23;20056;-72
2022/05/15 12:39:58;;;;;;;6.57;1.67;;;;;;;24.91;34.86;100772.16;6148508;23;20080;-73
2022/05/15 12:43:16;;;;;;;5.88;1.58;;;;;;;25.02;33.74;100771.81;6147859;23;20402;-72
2022/05/15 12:46:54;;;;;;;3.58;1.30;;;;;;;25.37;33.36;100766.28;6148427;23;20597;-73
2022/05/15 12:50:01;;;;;;;5.18;1.83;;;;;;;25.54;33.44;100759.88;6148837;23;20690;-72
2022/05/15 12:53:04;;;;;;;4.25;1.75;;;;;;;25.66;34.79;100760.34;6147243;23;20059;-73
2022/05/15 12:56:09;;;;;;;5.82;1.80;;;;;;;25.88;32.47;100748.09;6148363;23;20367;-73
2022/05/15 12:59:18;;;;;;;5.35;1.63;;;;;;;25.88;32.95;100756.13;6148507;23;20032;-72
2022/05/15 13:02:35;;;;;;;8.57;1.58;;;;;;;25.74;32.24;100750.44;6146782;23;20067;-72
2022/05/15 13:05:52;;;;;;;7.80;1.70;;;;;;;25.68;32.01;100739.56;6148236;23;20083;-72
2022/05/15 13:09:03;;;;;;;7.20;1.52;;;;;;;25.29;33.99;100749.22;6152379;23;20567;-72
2022/05/15 13:12:15;;;;;;;7.07;1.30;;;;;;;25.06;33.68;100745.56;6153038;23;20028;-72
2022/05/15 13:15:23;;;;;;;7.10;1.73;;;;;;;25.18;33.69;100749.59;6151448;23;20091;-72
2022/05/15 13:18:31;;;;;;;5.13;1.25;;;;;;;26.17;31.15;100745.56;6155477;23;20028;-72
2022/05/15 13:21:39;;;;;;;9.88;1.80;;;;;;;26.18;31.22;100749.09;6154747;23;20051;-72
2022/05/15 13:24:43;;;;;;;4.80;1.20;;;;;;;25.77;30.85;100743.06;6155928;23;20049;-72
2022/05/15 13:27:48;;;;;;;6.20;1.33;;;;;;;25.69;30.96;100736.75;6156692;23;20024;-72
2022/05/15 13:30:52;;;;;;;4.15;1.15;;;;;;;25.49;29.87;100738.13;6156868;23;20028;-72
2022/05/15 13:33:56;;;;;;;4.70;1.33;;;;;;;25.25;30.20;100736.38;6156411;23;20091;-73
2022/05/15 13:37:21;;;;;;;5.45;1.20;;;;;;;25.21;28.27;100738.56;6155538;23;20032;-73
2022/05/15 13:43:58;;;;;;;8.55;1.10;;;;;;;24.47;28.69;100739.53;6156978;23;20072;-72
2022/05/15 13:47:14;;;;;;;5.07;1.70;;;;;;;24.56;29.38;100739.38;6138760;23;20028;-72
2022/05/15 13:50:40;;;;;;;6.78;1.48;;;;;;;24.67;29.59;100732.06;6155881;23;20472;-72
2022/05/15 13:53:43;;;;;;;7.57;1.10;;;;;;;24.55;30.31;100727.03;6156050;23;20036;-72
2022/05/15 13:56:56;;;;;;;6.90;1.20;;;;;;;24.56;30.47;100730.53;6156747;23;20027;-72
2022/05/15 14:00:09;;;;;;;5.68;1.73;;;;;;;24.42;32.63;100732.03;6156841;23;20101;-72
2022/05/15 14:03:29;;;;;;;5.05;1.27;;;;;;;24.77;32.50;100725.53;6156716;23;20020;-73
2022/05/15 14:06:34;;;;;;;5.85;1.55;;;;;;;24.88;30.46;100715.50;6156093;23;20028;-72
2022/05/15 14:09:42;;;;;;;9.13;1.50;;;;;;;24.82;30.74;100717.00;6155346;23;20028;-72
2022/05/15 14:12:52;;;;;;;5.85;1.67;;;;;;;24.92;30.35;100708.78;6155226;23;20101;-73
2022/05/15 14:15:56;;;;;;;6.60;1.67;;;;;;;25.18;33.66;100712.13;6155947;23;20092;-72
2022/05/15 14:19:16;;;;;;;6.68;1.52;;;;;;;25.13;32.51;100717.16;6155341;23;20535;-72
2022/05/15 14:22:21;;;;;;;6.82;1.40;;;;;;;25.03;30.19;100703.94;6155229;23;20056;-73
2022/05/15 14:25:26;;;;;;;4.13;1.20;;;;;;;25.18;29.24;100709.47;6154901;23;20508;-72
2022/05/15 14:28:29;;;;;;;8.95;1.42;;;;;;;25.11;28.70;100705.78;6155683;23;20025;-73
2022/05/15 14:31:40;;;;;;;6.55;1.20;;;;;;;25.08;33.14;100699.91;6137614;23;20472;-72
2022/05/15 14:34:44;;;;;;;4.97;1.50;;;;;;;24.95;34.21;100695.94;6155323;23;20044;-72
2022/05/15 14:37:48;;;;;;;6.88;1.35;;;;;;;25.25;32.83;100696.22;6155257;23;20385;-73
2022/05/15 14:40:52;;;;;;;8.50;1.42;;;;;;;25.66;31.44;100694.25;6137365;23;20024;-73
2022/05/15 14:43:55;;;;;;;3.97;1.23;;;;;;;25.62;31.55;100692.94;6155677;23;20338;-73
2022/05/15 14:47:01;;;;;;;3.15;1.30;;;;;;;27.59;26.16;100682.25;6155131;23;20044;-72
2022/05/15 14:50:06;;;;;;;4.05;1.48;;;;;;;30.76;22.69;100683.63;6153832;23;20024;-73
2022/05/15 14:53:09;;;;;;;3.97;1.10;;;;;;;31.29;21.78;100677.31;6153748;23;20027;-73
2022/05/15 14:56:14;;;;;;;4.40;1.38;;;;;;;30.84;22.09;100668.28;6155439;23;20557;-73
2022/05/15 14:59:21;;;;;;;9.82;1.73;;;;;;;29.61;23.74;100668.47;6155415;23;20024;-73
2022/05/15 15:02:24;;;;;;;5.30;1.70;;;;;;;31.04;21.47;100663.66;6154378;23;20081;-73
2022/05/15 15:05:44;;;;;;;6.72;1.58;;;;;;;32.97;19.37;100655.28;6154564;23;20341;-73
2022/05/15 15:08:48;;;;;;;6.55;1.80;;;;;;;33.83;18.17;100664.25;6154705;23;20349;-73
2022/05/15 15:11:54;;;;;;;5.45;1.80;;;;;;;34.53;17.38;100657.41;6155133;23;20076;-73
2022/05/15 15:14:57;;;;;;;5.10;1.60;;;;;;;35.00;17.81;100649.19;6155190;23;20025;-73